Terminal Aerodrome Forecast
Issued by NWS Portland, OR

Home | Current Version | Previous Version | Text Only | Print | Product List | Glossary On
Versions: 1 2 3 4 5 6 7 8 9 10 11 12 13
000
FTUS46 KPQR 282322
TAFEUG
TAF
KEUG 282322Z 2900/2924 VRB03KT P6SM SKC
     FM290400 22003KT P6SM SCT030 BKN050
     FM291800 31007KT P6SM SCT050=

USA.gov is the U.S. government's official web portal to all federal, state and local government web resources and services.